McCook, NE

10:17 AM CDT em 28 de Setembro de 2016 (GMT -0500)
McCook Municipal | | Change Station

Elev 2579 ft 40.20 °N, 100.59 °W | Updated 24 minutes ago

Clear
Céu Limpo
60 °F
Aparente 60 °F
N
0
Vento Variável Vento de Norte

Hoje
Máxima -- | Mínima -- °F
--% Possibilidade de Precip.
Ontem
Máxima -- | Mínima -- °F
Precip. -- pol
Pressão 30.19 pol
Visibilidade 10.0 milhas
Nuvens Céu Limpo
Ponto de Orvalho 46 °F
Humidade 60%
Chuva 0.00 pol
Altura de Neve Não disponível
7:36 AM 7:28 PM
Quarto minguante, 5% visible
METAR KMCK 281453Z AUTO 00000KT 10SM CLR 16/08 A3022 RMK AO2 SLP224 T01560078 51028
Pressão 30.19 pol
Visibilidade 10.0 milhas
Nuvens Céu Limpo
Ponto de Orvalho 46 °F
Humidade 60%
Chuva 0.00 pol
Altura de Neve Não disponível
7:36 AM 7:28 PM
Quarto minguante, 5% visible
METAR KMCK 281453Z AUTO 00000KT 10SM CLR 16/08 A3022 RMK AO2 SLP224 T01560078 51028

10-Day Weather Forecast

Almanac

Astronomia

Sep. 28, 2016 Nascer Pôr
Hora atual
Crepúsculo civil
Crepúsculo náutico
Crepúsculo astronómico
Lua
Comprimento da luz visível
Duração do Dia
Tomorrow will be .
, % of the Moon is Illuminated

Extremos de Hoje

situação na parte mais alta situação na parte mais baixa

Community

WunderPhotos

Upload Photos

1,942,280 fotografias inseridas!

WunderBlog® & News

Nearby

Qualidade do Ar

  Qualidade do Ar Índice da Q.A. Poluente
Not available.

Altura da Neve

Estação altura Altitude

Actividade Sísmisca

Cidade Distância Mag. Hora & Data
Mínima magnitude apresentada é 2.5.

Temperaturas das Águas Costeiras

Local Temperatura

Stations

Estações Meteorológicas Próximas

Localização da Estação Temp. Sensação Térmica Ponto de Orvalho Humidade Vento Precip. Elev Actualizado Tipo
                   

Watches & Warnings

There are currently no watches in effect.